createdAt,value
2022-08-31T00:06:17.325Z,13.85
2022-08-31T00:16:31.367Z,13.99
2022-08-31T00:26:45.330Z,13.87
2022-08-31T00:36:58.346Z,14.39
2022-08-31T00:47:11.372Z,14.22
2022-08-31T00:57:30.110Z,14.32
2022-08-31T01:07:48.372Z,14.03
2022-08-31T01:18:03.374Z,13.93
2022-08-31T01:28:17.385Z,13.64
2022-08-31T01:38:30.402Z,13.71
2022-08-31T01:48:43.407Z,14.12
2022-08-31T01:58:56.423Z,14.18
2022-08-31T02:09:10.426Z,14.29
2022-08-31T02:19:23.419Z,14.62
2022-08-31T02:29:36.446Z,14.01
2022-08-31T02:39:50.311Z,13.69
2022-08-31T02:50:03.446Z,13.79
2022-08-31T03:00:17.451Z,13.47
2022-08-31T03:10:32.463Z,13.37
2022-08-31T03:20:45.486Z,13.16
2022-08-31T03:30:58.527Z,13.04
2022-08-31T03:41:11.490Z,13.07
2022-08-31T03:51:25.517Z,12.97
2022-08-31T04:01:45.565Z,12.95
2022-08-31T04:12:04.523Z,12.77
2022-08-31T04:22:17.518Z,12.60
2022-08-31T04:32:30.548Z,12.88
2022-08-31T04:42:44.533Z,13.33
2022-08-31T04:53:03.048Z,13.50
2022-08-31T05:03:16.547Z,13.68
2022-08-31T05:13:29.595Z,13.94
2022-08-31T05:23:42.562Z,14.35
2022-08-31T05:33:55.598Z,16.11
2022-08-31T05:44:09.608Z,17.88
2022-08-31T05:54:23.597Z,18.94
2022-08-31T06:04:36.617Z,19.55
2022-08-31T06:14:56.606Z,20.14
2022-08-31T06:25:09.645Z,20.68
2022-08-31T06:35:22.664Z,19.61
2022-08-31T06:45:35.649Z,20.06
2022-08-31T06:55:48.663Z,19.59
2022-08-31T07:06:01.657Z,21.27
2022-08-31T07:16:24.724Z,20.12
2022-08-31T07:26:48.679Z,20.90
2022-08-31T07:37:23.698Z,20.43
2022-08-31T07:47:36.703Z,20.72
2022-08-31T07:57:51.695Z,20.80
2022-08-31T08:08:15.624Z,22.04
2022-08-31T08:18:28.706Z,22.13
2022-08-31T08:28:41.767Z,22.86
2022-08-31T08:38:57.738Z,22.69
2022-08-31T08:49:26.751Z,22.28
2022-08-31T08:59:39.791Z,22.95
2022-08-31T09:10:09.760Z,23.04
2022-08-31T09:20:25.763Z,21.78
2022-08-31T09:30:46.797Z,23.75
2022-08-31T09:41:00.856Z,22.74
2022-08-31T09:51:21.817Z,24.50
2022-08-31T10:01:52.846Z,23.67
2022-08-31T10:12:09.809Z,23.39
2022-08-31T10:22:33.828Z,23.56
2022-08-31T10:33:17.944Z,24.70
2022-08-31T10:43:36.870Z,24.80
2022-08-31T10:54:16.847Z,24.05
2022-08-31T11:04:55.931Z,24.73
2022-08-31T11:15:42.970Z,23.46
2022-08-31T11:26:17.869Z,23.29
2022-08-31T11:36:50.922Z,23.63
2022-08-31T11:47:11.875Z,23.57
2022-08-31T11:57:37.456Z,22.91
2022-08-31T12:07:55.903Z,23.45
2022-08-31T12:18:19.921Z,23.08
2022-08-31T12:29:10.925Z,23.39
2022-08-31T12:39:27.967Z,22.94
2022-08-31T12:49:48.964Z,23.54
2022-08-31T13:00:27.972Z,23.27
2022-08-31T13:10:42.962Z,24.48
2022-08-31T13:20:57.987Z,24.29
2022-08-31T13:31:14.115Z,24.11
2022-08-31T13:41:37.042Z,23.22
2022-08-31T13:51:52.986Z,23.95
2022-08-31T14:02:24.059Z,23.91
2022-08-31T14:13:08.168Z,23.38
2022-08-31T14:23:33.019Z,23.90
2022-08-31T14:33:51.067Z,24.06
2022-08-31T14:44:06.035Z,23.67
2022-08-31T14:54:19.048Z,23.94
2022-08-31T15:04:33.058Z,23.62
2022-08-31T15:14:55.060Z,23.99
2022-08-31T15:25:08.071Z,23.60
2022-08-31T15:35:26.103Z,23.64
2022-08-31T15:45:39.204Z,23.36
2022-08-31T15:55:52.159Z,23.44
2022-08-31T16:06:06.125Z,23.23
2022-08-31T16:16:26.193Z,22.29
2022-08-31T16:26:46.124Z,22.25
2022-08-31T16:37:00.152Z,22.30
2022-08-31T16:47:19.154Z,21.76
2022-08-31T16:57:35.144Z,21.29
2022-08-31T17:07:50.198Z,21.32
2022-08-31T17:18:04.171Z,21.04
2022-08-31T17:28:17.211Z,21.58
2022-08-31T17:38:30.188Z,21.82
2022-08-31T17:48:44.227Z,21.81
2022-08-31T17:58:57.205Z,21.85
2022-08-31T18:09:10.243Z,21.73
2022-08-31T18:19:27.587Z,21.69
2022-08-31T18:29:41.240Z,21.55
2022-08-31T18:40:12.371Z,21.51
2022-08-31T18:50:25.308Z,21.45
2022-08-31T19:00:40.632Z,21.45
2022-08-31T19:10:54.268Z,21.38
2022-08-31T19:21:07.279Z,21.24
2022-08-31T19:31:22.660Z,21.13
2022-08-31T19:41:37.292Z,19.65
2022-08-31T19:51:58.314Z,17.76
2022-08-31T20:02:14.390Z,19.30
2022-08-31T20:12:27.345Z,20.13
2022-08-31T20:22:41.318Z,20.31
2022-08-31T20:32:54.323Z,20.35
2022-08-31T20:43:18.434Z,20.28
2022-08-31T20:53:42.669Z,20.14
2022-08-31T21:03:56.383Z,20.04
2022-08-31T21:14:15.365Z,20.02
2022-08-31T21:24:29.380Z,20.08
2022-08-31T21:34:42.386Z,20.05
2022-08-31T21:44:55.392Z,20.06
2022-08-31T21:55:13.432Z,20.05
2022-08-31T22:05:26.410Z,20.02
2022-08-31T22:15:46.472Z,20.01
2022-08-31T22:25:59.431Z,19.97
2022-08-31T22:36:16.865Z,19.96
2022-08-31T22:46:45.523Z,19.87
2022-08-31T22:56:58.468Z,19.87
2022-08-31T23:07:11.462Z,19.78
2022-08-31T23:17:30.478Z,19.77
2022-08-31T23:27:43.495Z,19.75
2022-08-31T23:37:56.495Z,19.67
2022-08-31T23:48:09.497Z,19.68
2022-08-31T23:58:23.507Z,19.60
